createdAt,value
2023-02-14T00:01:33.099Z,103095.88
2023-02-14T00:04:01.662Z,103096.97
2023-02-14T00:06:29.839Z,103105.16
2023-02-14T00:08:57.882Z,103096.97
2023-02-14T00:11:25.777Z,103099.75
2023-02-14T00:14:11.184Z,103095.25
2023-02-14T00:16:40.721Z,103096.25
2023-02-14T00:19:10.187Z,103091.78
2023-02-14T00:21:40.380Z,103092.69
2023-02-14T00:24:11.379Z,103089.19
2023-02-14T00:26:40.109Z,103080.25
2023-02-14T00:29:10.815Z,103085.78
2023-02-14T00:31:41.515Z,103087.63
2023-02-14T00:34:10.577Z,103085.91
2023-02-14T00:36:39.303Z,103086.97
2023-02-14T00:39:09.180Z,103080.59
2023-02-14T00:41:38.824Z,103082.50
2023-02-14T00:44:07.387Z,103084.41
2023-02-14T00:46:36.080Z,103078.13
2023-02-14T00:49:05.829Z,103080.84
2023-02-14T00:51:33.746Z,103079.19
2023-02-14T00:54:03.406Z,103074.66
2023-02-14T00:56:33.115Z,103073.78
2023-02-14T00:59:01.154Z,103077.53
2023-02-14T01:01:29.418Z,103080.31
2023-02-14T01:03:58.918Z,103084.97
2023-02-14T01:06:28.267Z,103081.34
2023-02-14T01:08:58.390Z,103092.34
2023-02-14T01:11:28.198Z,103090.63
2023-02-14T01:13:58.886Z,103094.28
2023-02-14T01:16:28.625Z,103092.53
2023-02-14T01:18:57.037Z,103089.94
2023-02-14T01:21:27.178Z,103092.72
2023-02-14T01:24:00.886Z,103097.34
2023-02-14T01:26:29.971Z,103086.59
2023-02-14T01:28:58.216Z,103086.66
2023-02-14T01:31:29.366Z,103092.19
2023-02-14T01:33:58.933Z,103088.69
2023-02-14T01:36:32.138Z,103088.78
2023-02-14T01:39:04.620Z,103089.78
2023-02-14T01:41:36.368Z,103083.56
2023-02-14T01:44:09.416Z,103081.88
2023-02-14T01:46:38.551Z,103086.59
2023-02-14T01:49:13.049Z,103076.81
2023-02-14T01:51:45.296Z,103080.41
2023-02-14T01:54:16.101Z,103077.81
2023-02-14T01:56:48.774Z,103080.63
2023-02-14T01:59:20.655Z,103072.59
2023-02-14T02:01:51.289Z,103079.09
2023-02-14T02:04:23.807Z,103082.91
2023-02-14T02:06:54.475Z,103074.03
2023-02-14T02:09:32.096Z,103060.53
2023-02-14T02:12:00.560Z,103066.22
2023-02-14T02:14:28.502Z,103066.44
2023-02-14T02:17:20.731Z,103073.78
2023-02-14T02:20:26.140Z,103063.13
2023-02-14T02:23:34.825Z,103058.75
2023-02-14T02:26:45.017Z,103071.72
2023-02-14T02:29:34.584Z,103066.34
2023-02-14T02:32:26.813Z,103066.41
2023-02-14T02:35:16.982Z,103065.69
2023-02-14T02:37:55.401Z,103066.72
2023-02-14T02:40:45.167Z,103067.69
2023-02-14T02:43:29.839Z,103058.66
2023-02-14T02:46:23.111Z,103053.31
2023-02-14T02:49:00.724Z,103049.84
2023-02-14T02:51:59.555Z,103047.13
2023-02-14T02:54:34.587Z,103053.63
2023-02-14T02:57:06.918Z,103048.22
2023-02-14T02:59:39.481Z,103051.09
2023-02-14T03:02:12.723Z,103051.22
2023-02-14T03:04:56.148Z,103046.75
2023-02-14T03:07:39.615Z,103057.75
2023-02-14T03:10:14.135Z,103047.00
2023-02-14T03:13:11.757Z,103055.19
2023-02-14T03:15:54.187Z,103049.97
2023-02-14T03:18:52.433Z,103056.47
2023-02-14T03:21:28.787Z,103056.59
2023-02-14T03:24:06.546Z,103056.72
2023-02-14T03:26:40.418Z,103059.69
2023-02-14T03:29:16.947Z,103050.66
2023-02-14T03:31:55.777Z,103054.38
2023-02-14T03:34:31.510Z,103058.19
2023-02-14T03:37:04.710Z,103057.34
2023-02-14T03:39:40.898Z,103060.13
2023-02-14T03:42:15.535Z,103066.59
2023-02-14T03:44:46.448Z,103057.59
2023-02-14T03:47:27.429Z,103061.22
2023-02-14T03:50:00.346Z,103062.38
2023-02-14T03:52:31.611Z,103066.91
2023-02-14T03:55:03.896Z,103058.72
2023-02-14T03:57:37.011Z,103059.72
2023-02-14T04:00:06.527Z,103066.03
2023-02-14T04:02:44.142Z,103058.97
2023-02-14T04:05:17.693Z,103055.25
2023-02-14T04:07:47.325Z,103057.03
2023-02-14T04:10:18.009Z,103056.16
2023-02-14T04:12:46.113Z,103058.97
2023-02-14T04:15:15.549Z,103055.25
2023-02-14T04:18:00.885Z,103058.97
2023-02-14T04:20:29.667Z,103057.19
2023-02-14T04:22:57.592Z,103055.44
2023-02-14T04:25:27.261Z,103054.50
2023-02-14T04:27:55.044Z,103056.38
2023-02-14T04:30:23.383Z,103046.50
2023-02-14T04:32:51.249Z,103041.13
2023-02-14T04:35:19.223Z,103044.78
2023-02-14T04:37:47.057Z,103044.88
2023-02-14T04:40:17.272Z,103044.94
2023-02-14T04:42:46.898Z,103046.72
2023-02-14T04:45:15.003Z,103036.91
2023-02-14T04:47:42.763Z,103039.69
2023-02-14T04:50:11.099Z,103036.13
2023-02-14T04:52:39.222Z,103032.56
2023-02-14T04:55:08.148Z,103029.91
2023-02-14T04:57:35.933Z,103027.34
2023-02-14T05:00:06.094Z,103022.09
2023-02-14T05:02:33.925Z,103016.84
2023-02-14T05:05:01.740Z,103026.94
2023-02-14T05:07:29.550Z,103027.09
2023-02-14T05:09:57.336Z,103026.34
2023-02-14T05:12:25.193Z,103021.94
2023-02-14T05:14:52.973Z,103018.41
2023-02-14T05:17:22.081Z,103012.16
2023-02-14T05:19:49.887Z,103009.53
2023-02-14T05:22:18.604Z,103006.06
2023-02-14T05:24:46.441Z,103007.03
2023-02-14T05:27:14.189Z,103012.53
2023-02-14T05:29:42.066Z,103012.53
2023-02-14T05:32:10.120Z,103006.19
2023-02-14T05:34:39.365Z,103003.47
2023-02-14T05:37:07.202Z,103001.66
2023-02-14T05:39:35.013Z,102998.03
2023-02-14T05:42:03.202Z,103004.31
2023-02-14T05:44:31.010Z,103000.66
2023-02-14T05:46:58.827Z,103004.28
2023-02-14T05:49:26.561Z,103001.56
2023-02-14T05:51:55.673Z,103009.63
2023-02-14T05:54:23.470Z,103006.00
2023-02-14T05:56:51.218Z,103006.81
2023-02-14T05:59:19.050Z,103011.38
2023-02-14T06:01:46.873Z,103001.34
2023-02-14T06:04:14.678Z,103011.28
2023-02-14T06:06:42.417Z,103008.50
2023-02-14T06:09:11.512Z,103006.63
2023-02-14T06:11:39.249Z,103009.34
2023-02-14T06:14:06.969Z,103012.97
2023-02-14T06:16:34.799Z,103008.47
2023-02-14T06:19:02.620Z,103011.19
2023-02-14T06:21:30.435Z,103012.06
2023-02-14T06:23:58.306Z,103014.84
2023-02-14T06:26:28.042Z,103018.50
2023-02-14T06:28:56.215Z,103015.88
2023-02-14T06:31:24.517Z,103013.28
2023-02-14T06:33:53.609Z,103020.53
2023-02-14T06:36:21.773Z,103022.50
2023-02-14T06:38:49.928Z,103026.25
2023-02-14T06:41:18.439Z,103038.94
2023-02-14T06:43:49.040Z,103039.88
2023-02-14T06:46:17.380Z,103036.34
2023-02-14T06:48:45.323Z,103038.22
2023-02-14T06:51:13.576Z,103037.41
2023-02-14T06:53:41.613Z,103031.13
2023-02-14T06:56:09.450Z,103031.22
2023-02-14T06:58:37.205Z,103024.97
2023-02-14T07:01:06.721Z,103035.94
2023-02-14T07:03:34.583Z,103036.03
2023-02-14T07:06:02.427Z,103030.72
2023-02-14T07:08:30.197Z,103039.00
2023-02-14T07:10:58.742Z,103032.78
2023-02-14T07:13:26.920Z,103040.94
2023-02-14T07:15:54.741Z,103038.34
2023-02-14T07:18:24.113Z,103037.50
2023-02-14T07:20:52.367Z,103035.75
2023-02-14T07:23:20.102Z,103034.91
2023-02-14T07:25:47.889Z,103033.03
2023-02-14T07:28:15.604Z,103037.47
2023-02-14T07:30:43.474Z,103031.84
2023-02-14T07:33:12.207Z,103029.78
2023-02-14T07:35:41.412Z,103033.94
2023-02-14T07:38:09.530Z,103029.25
2023-02-14T07:40:37.314Z,103029.94
2023-02-14T07:43:05.018Z,103028.88
2023-02-14T07:45:33.014Z,103024.16
2023-02-14T07:48:02.057Z,103022.25
2023-02-14T07:50:30.449Z,103024.88
2023-02-14T07:52:59.700Z,103023.84
2023-02-14T07:55:27.596Z,103021.97
2023-02-14T07:57:55.365Z,103030.94
2023-02-14T08:00:24.017Z,103026.34
2023-02-14T08:02:51.872Z,103032.53
2023-02-14T08:05:19.901Z,103040.59
2023-02-14T08:07:47.704Z,103032.34
2023-02-14T08:10:17.100Z,103030.34
2023-02-14T08:13:00.047Z,103028.47
2023-02-14T08:15:46.812Z,103032.88
2023-02-14T08:18:15.102Z,103030.06
2023-02-14T08:20:43.622Z,103029.03
2023-02-14T08:23:11.860Z,103027.97
2023-02-14T08:25:41.285Z,103026.06
2023-02-14T08:28:09.329Z,103023.22
2023-02-14T08:30:38.796Z,103030.41
2023-02-14T08:33:07.038Z,103033.97
2023-02-14T08:35:35.359Z,103032.06
2023-02-14T08:38:03.714Z,103032.97
2023-02-14T08:40:31.848Z,103029.19
2023-02-14T08:43:00.999Z,103039.03
2023-02-14T08:45:28.794Z,103040.78
2023-02-14T08:48:02.321Z,103040.63
2023-02-14T08:50:30.230Z,103035.16
2023-02-14T08:52:58.007Z,103031.41
2023-02-14T08:55:26.043Z,103039.41
2023-02-14T08:57:55.451Z,103034.69
2023-02-14T09:00:24.812Z,103033.50
2023-02-14T09:02:53.563Z,103030.56
2023-02-14T09:05:23.294Z,103035.66
2023-02-14T09:07:51.781Z,103035.28
2023-02-14T09:10:20.027Z,103024.13
2023-02-14T09:12:47.940Z,103027.22
2023-02-14T09:15:15.745Z,103027.69
2023-02-14T09:17:45.001Z,103018.06
2023-02-14T09:20:14.692Z,103010.28
2023-02-14T09:22:42.625Z,103007.06
2023-02-14T09:25:10.655Z,103012.03
2023-02-14T09:27:38.568Z,103009.66
2023-02-14T09:30:07.379Z,103005.53
2023-02-14T09:32:35.306Z,103004.03
2023-02-14T09:35:04.524Z,102998.09
2023-02-14T09:37:32.376Z,102997.69
2023-02-14T09:40:00.183Z,102988.16
2023-02-14T09:42:47.342Z,102999.38
2023-02-14T09:45:18.285Z,102995.31
2023-02-14T09:47:50.494Z,102996.59
2023-02-14T09:50:25.466Z,102995.28
2023-02-14T09:52:57.085Z,102994.69
2023-02-14T09:55:30.001Z,102998.75
2023-02-14T09:58:04.674Z,102987.88
2023-02-14T10:00:38.069Z,102984.31
2023-02-14T10:03:38.304Z,102993.50
2023-02-14T10:06:20.392Z,102992.16
2023-02-14T10:09:03.130Z,102985.16
2023-02-14T10:11:31.444Z,102989.53
2023-02-14T10:14:05.178Z,102986.09
2023-02-14T10:16:37.837Z,102979.25
2023-02-14T10:19:14.992Z,102988.91
2023-02-14T10:21:51.738Z,102987.41
2023-02-14T10:24:24.514Z,102980.63
2023-02-14T10:27:16.779Z,102983.09
2023-02-14T10:29:44.760Z,102988.19
2023-02-14T10:32:16.014Z,102993.03
2023-02-14T10:34:49.183Z,102982.53
2023-02-14T10:37:31.326Z,102977.47
2023-02-14T10:40:22.596Z,102973.41
2023-02-14T10:42:58.603Z,102981.91
2023-02-14T10:45:35.662Z,102968.59
2023-02-14T10:48:16.645Z,102969.91
2023-02-14T10:50:52.331Z,102954.03
2023-02-14T10:53:27.919Z,102956.13
2023-02-14T10:56:01.172Z,102954.91
2023-02-14T10:58:33.605Z,102943.66
2023-02-14T11:01:04.810Z,102942.53
2023-02-14T11:03:35.914Z,102944.00
2023-02-14T11:06:03.917Z,102939.31
2023-02-14T11:08:36.191Z,102935.25
2023-02-14T11:11:14.877Z,102938.81
2023-02-14T11:13:43.363Z,102926.75
2023-02-14T11:16:14.145Z,102923.84
2023-02-14T11:18:42.671Z,102937.38
2023-02-14T11:21:12.218Z,102929.84
2023-02-14T11:23:43.996Z,102931.53
2023-02-14T11:26:18.403Z,102923.09
2023-02-14T11:28:55.295Z,102918.41
2023-02-14T11:31:29.340Z,102914.53
2023-02-14T11:33:57.890Z,102921.56
2023-02-14T11:36:26.671Z,102911.22
2023-02-14T11:39:06.504Z,102915.25
2023-02-14T11:41:48.890Z,102903.91
2023-02-14T11:44:22.606Z,102904.47
2023-02-14T11:46:53.532Z,102900.19
2023-02-14T11:49:29.624Z,102899.44
2023-02-14T11:51:59.464Z,102894.44
2023-02-14T11:54:36.184Z,102891.88
2023-02-14T11:57:08.015Z,102884.06
2023-02-14T11:59:39.957Z,102883.78
2023-02-14T12:02:23.108Z,102884.06
2023-02-14T12:04:56.079Z,102879.03
2023-02-14T12:07:29.140Z,102873.13
2023-02-14T12:10:17.418Z,102876.59
2023-02-14T12:12:51.975Z,102867.13
2023-02-14T12:15:27.176Z,102864.09
2023-02-14T12:18:02.103Z,102857.50
2023-02-14T12:20:39.324Z,102848.06
2023-02-14T12:23:16.321Z,102851.38
2023-02-14T12:25:52.335Z,102843.81
2023-02-14T12:28:30.782Z,102839.78
2023-02-14T12:30:59.370Z,102827.69
2023-02-14T12:33:27.530Z,102834.72
2023-02-14T12:36:04.772Z,102825.97
2023-02-14T12:38:43.637Z,102832.03
2023-02-14T12:41:31.898Z,102826.22
2023-02-14T12:44:05.697Z,102820.50
2023-02-14T12:46:46.648Z,102821.94
2023-02-14T12:49:27.496Z,102815.38
2023-02-14T12:52:11.170Z,102816.81
2023-02-14T12:54:57.858Z,102805.72
2023-02-14T12:57:41.964Z,102811.13
2023-02-14T13:00:24.055Z,102800.00
2023-02-14T13:03:27.784Z,102793.81
2023-02-14T13:06:04.801Z,102796.28
2023-02-14T13:08:51.864Z,102790.78
2023-02-14T13:11:32.846Z,102788.75
2023-02-14T13:14:11.566Z,102783.16
2023-02-14T13:16:50.325Z,102780.31
2023-02-14T13:19:35.641Z,102783.94
2023-02-14T13:22:06.181Z,102773.81
2023-02-14T13:24:40.603Z,102779.22
2023-02-14T13:27:13.638Z,102770.81
2023-02-14T13:29:48.584Z,102774.38
2023-02-14T13:32:21.080Z,102775.25
2023-02-14T13:34:50.908Z,102767.09
2023-02-14T13:37:21.760Z,102764.03
2023-02-14T13:39:53.221Z,102761.19
2023-02-14T13:42:53.712Z,102752.13
2023-02-14T13:45:54.675Z,102755.97
2023-02-14T13:48:24.500Z,102745.06
2023-02-14T13:50:56.129Z,102744.09
2023-02-14T13:53:33.623Z,102743.31
2023-02-14T13:56:02.987Z,102737.16
2023-02-14T13:58:31.951Z,102737.38
2023-02-14T14:01:39.254Z,102742.34
2023-02-14T14:04:39.075Z,102736.38
2023-02-14T14:07:30.387Z,102736.59
2023-02-14T14:10:03.910Z,102732.16
2023-02-14T14:12:39.996Z,102724.13
2023-02-14T14:15:21.973Z,102727.09
2023-02-14T14:18:29.308Z,102728.72
2023-02-14T14:20:58.579Z,102720.56
2023-02-14T14:23:38.515Z,102719.81
2023-02-14T14:26:37.172Z,102710.88
2023-02-14T14:29:13.312Z,102722.13
2023-02-14T14:31:42.616Z,102707.78
2023-02-14T14:34:18.856Z,102706.13
2023-02-14T14:36:48.190Z,102700.97
2023-02-14T14:39:28.298Z,102703.81
2023-02-14T14:41:56.946Z,102699.63
2023-02-14T14:44:26.595Z,102698.75
2023-02-14T14:46:54.651Z,102690.69
2023-02-14T14:49:22.549Z,102684.47
2023-02-14T14:51:51.908Z,102684.47
2023-02-14T14:54:22.707Z,102678.19
2023-02-14T14:56:56.731Z,102676.50
2023-02-14T14:59:30.969Z,102675.63
2023-02-14T15:01:59.196Z,102673.22
2023-02-14T15:04:29.870Z,102669.59
2023-02-14T15:07:18.533Z,102670.56
2023-02-14T15:09:46.577Z,102662.63
2023-02-14T15:12:39.155Z,102661.63
2023-02-14T15:15:10.136Z,102663.84
2023-02-14T15:17:38.706Z,102653.63
2023-02-14T15:20:11.484Z,102655.38
2023-02-14T15:22:45.432Z,102650.88
2023-02-14T15:25:20.109Z,102645.47
2023-02-14T15:27:48.734Z,102646.56
2023-02-14T15:30:26.625Z,102650.09
2023-02-14T15:32:55.295Z,102648.53
2023-02-14T15:35:28.005Z,102646.56
2023-02-14T15:38:01.750Z,102648.66
2023-02-14T15:40:32.246Z,102651.41
2023-02-14T15:43:14.736Z,102645.78
2023-02-14T15:45:44.192Z,102647.09
2023-02-14T15:48:19.702Z,102652.38
2023-02-14T15:50:51.003Z,102647.09
2023-02-14T15:53:32.774Z,102638.84
2023-02-14T15:56:06.775Z,102639.94
2023-02-14T15:58:38.410Z,102640.06
2023-02-14T16:01:07.384Z,102637.41
2023-02-14T16:03:37.526Z,102647.53
2023-02-14T16:06:06.306Z,102651.25
2023-02-14T16:08:37.716Z,102643.00
2023-02-14T16:11:08.915Z,102651.34
2023-02-14T16:13:39.251Z,102650.56
2023-02-14T16:16:08.604Z,102657.06
2023-02-14T16:18:39.245Z,102649.78
2023-02-14T16:21:16.416Z,102657.13
2023-02-14T16:23:47.633Z,102653.69
2023-02-14T16:26:15.804Z,102652.03
2023-02-14T16:28:44.354Z,102652.16
2023-02-14T16:31:17.229Z,102664.03
2023-02-14T16:33:45.002Z,102645.06
2023-02-14T16:36:20.709Z,102656.41
2023-02-14T16:38:50.795Z,102660.03
2023-02-14T16:41:20.802Z,102657.38
2023-02-14T16:43:49.712Z,102659.44
2023-02-14T16:46:19.925Z,102657.81
2023-02-14T16:48:52.082Z,102654.38
2023-02-14T16:51:21.801Z,102661.81
2023-02-14T16:53:51.572Z,102661.03
2023-02-14T16:56:23.881Z,102658.50
2023-02-14T16:58:51.911Z,102659.81
2023-02-14T17:01:19.743Z,102661.78
2023-02-14T17:03:47.734Z,102666.47
2023-02-14T17:06:19.947Z,102666.56
2023-02-14T17:08:50.168Z,102668.84
2023-02-14T17:11:20.752Z,102670.69
2023-02-14T17:13:49.722Z,102670.13
2023-02-14T17:16:18.351Z,102672.19
2023-02-14T17:18:49.606Z,102673.25
2023-02-14T17:21:20.540Z,102671.78
2023-02-14T17:23:48.443Z,102674.84
2023-02-14T17:26:17.944Z,102674.25
2023-02-14T17:28:47.801Z,102676.19
2023-02-14T17:31:16.742Z,102672.00
2023-02-14T17:33:44.682Z,102683.28
2023-02-14T17:36:14.594Z,102686.19
2023-02-14T17:38:43.413Z,102679.25
2023-02-14T17:41:13.458Z,102678.50
2023-02-14T17:43:41.701Z,102683.34
2023-02-14T17:46:11.429Z,102686.16
2023-02-14T17:48:39.347Z,102694.78
2023-02-14T17:51:08.255Z,102704.88
2023-02-14T17:53:36.813Z,102694.16
2023-02-14T17:56:06.840Z,102697.88
2023-02-14T17:58:34.736Z,102699.94
2023-02-14T18:01:04.332Z,102699.16
2023-02-14T18:03:34.720Z,102695.63
2023-02-14T18:06:04.144Z,102688.56
2023-02-14T18:08:34.236Z,102696.88
2023-02-14T18:11:05.864Z,102688.84
2023-02-14T18:13:34.128Z,102692.75
2023-02-14T18:16:03.298Z,102691.00
2023-02-14T18:18:31.367Z,102695.75
2023-02-14T18:21:03.061Z,102690.38
2023-02-14T18:23:32.641Z,102690.75
2023-02-14T18:26:04.204Z,102691.72
2023-02-14T18:28:32.789Z,102689.19
2023-02-14T18:31:04.482Z,102682.91
2023-02-14T18:33:32.426Z,102688.69
2023-02-14T18:36:04.292Z,102687.88
2023-02-14T18:38:32.215Z,102687.38
2023-02-14T18:41:03.291Z,102677.31
2023-02-14T18:43:31.451Z,102679.44
2023-02-14T18:46:03.915Z,102673.06
2023-02-14T18:48:32.119Z,102668.94
2023-02-14T18:51:07.307Z,102670.69
2023-02-14T18:53:35.373Z,102665.59
2023-02-14T18:56:05.343Z,102659.31
2023-02-14T18:58:33.519Z,102662.31
2023-02-14T19:01:09.277Z,102652.44
2023-02-14T19:03:37.232Z,102653.69
2023-02-14T19:06:07.486Z,102654.75
2023-02-14T19:08:36.816Z,102647.66
2023-02-14T19:11:05.130Z,102645.19
2023-02-14T19:13:33.061Z,102640.88
2023-02-14T19:16:01.174Z,102650.16
2023-02-14T19:18:29.485Z,102652.19
2023-02-14T19:20:57.279Z,102647.00
2023-02-14T19:23:26.713Z,102647.06
2023-02-14T19:25:54.768Z,102640.88
2023-02-14T19:28:22.828Z,102633.84
2023-02-14T19:30:50.669Z,102632.22
2023-02-14T19:33:18.611Z,102638.75
2023-02-14T19:35:46.448Z,102640.81
2023-02-14T19:38:14.670Z,102632.75
2023-02-14T19:40:46.353Z,102635.50
2023-02-14T19:43:14.498Z,102626.75
2023-02-14T19:45:42.470Z,102638.75
2023-02-14T19:48:11.161Z,102635.34
2023-02-14T19:50:41.862Z,102635.69
2023-02-14T19:53:10.138Z,102626.75
2023-02-14T19:55:39.909Z,102630.53
2023-02-14T19:58:09.674Z,102621.66
2023-02-14T20:00:38.136Z,102621.00
2023-02-14T20:03:06.182Z,102624.00
2023-02-14T20:05:35.242Z,102618.78
2023-02-14T20:08:03.102Z,102621.72
2023-02-14T20:10:32.885Z,102618.25
2023-02-14T20:13:02.382Z,102612.97
2023-02-14T20:18:37.129Z,102603.50
2023-02-14T20:21:12.238Z,102604.47
2023-02-14T20:23:44.199Z,102602.88
2023-02-14T20:26:14.118Z,102604.88
2023-02-14T20:28:43.300Z,102606.88
2023-02-14T20:31:19.063Z,102606.97
2023-02-14T20:33:50.459Z,102602.78
2023-02-14T20:36:20.168Z,102592.06
2023-02-14T20:38:51.280Z,102599.50
2023-02-14T20:41:19.242Z,102599.78
2023-02-14T20:43:48.744Z,102599.13
2023-02-14T20:46:21.333Z,102602.81
2023-02-14T20:48:54.123Z,102595.91
2023-02-14T20:51:23.981Z,102603.41
2023-02-14T20:53:54.092Z,102602.53
2023-02-14T20:56:26.020Z,102599.94
2023-02-14T20:58:54.220Z,102597.47
2023-02-14T21:01:46.380Z,102598.25
2023-02-14T21:04:17.902Z,102608.53
2023-02-14T21:06:47.672Z,102606.78
2023-02-14T21:09:16.532Z,102604.13
2023-02-14T21:11:44.441Z,102617.00
2023-02-14T21:14:12.840Z,102618.03
2023-02-14T21:16:42.056Z,102618.91
2023-02-14T21:19:09.987Z,102617.22
2023-02-14T21:21:39.160Z,102616.34
2023-02-14T21:24:09.668Z,102609.09
2023-02-14T21:26:38.054Z,102612.91
2023-02-14T21:29:06.483Z,102603.97
2023-02-14T21:31:34.564Z,102605.88
2023-02-14T21:34:04.788Z,102602.38
2023-02-14T21:36:35.524Z,102603.50
2023-02-14T21:39:04.369Z,102604.63
2023-02-14T21:41:32.983Z,102602.03
2023-02-14T21:44:02.754Z,102604.84
2023-02-14T21:46:32.013Z,102595.94
2023-02-14T21:49:19.454Z,102596.09
2023-02-14T21:51:52.023Z,102597.31
2023-02-14T21:54:20.330Z,102591.25
2023-02-14T21:56:49.290Z,102589.50
2023-02-14T21:59:17.255Z,102598.78
2023-02-14T22:01:45.930Z,102598.06
2023-02-14T22:04:14.103Z,102597.28
2023-02-14T22:06:43.068Z,102593.72
2023-02-14T22:09:17.410Z,102590.19
2023-02-14T22:11:47.603Z,102593.09
2023-02-14T22:14:15.730Z,102583.22
2023-02-14T22:16:43.584Z,102574.19
2023-02-14T22:19:14.747Z,102568.78
2023-02-14T22:21:43.414Z,102575.31
2023-02-14T22:24:12.820Z,102574.50
2023-02-14T22:26:41.853Z,102581.94
2023-02-14T22:29:13.121Z,102581.03
2023-02-14T22:31:43.594Z,102576.66
2023-02-14T22:34:13.753Z,102575.91
2023-02-14T22:36:41.949Z,102573.25
2023-02-14T22:39:09.901Z,102571.56
2023-02-14T22:41:39.618Z,102554.41
2023-02-14T22:44:07.830Z,102562.72
2023-02-14T22:46:38.764Z,102563.78
2023-02-14T22:49:09.144Z,102557.50
2023-02-14T22:51:38.658Z,102556.75
2023-02-14T22:54:09.058Z,102556.94
2023-02-14T22:56:40.955Z,102562.53
2023-02-14T22:59:14.508Z,102561.78
2023-02-14T23:01:42.508Z,102568.34
2023-02-14T23:04:10.975Z,102564.72
2023-02-14T23:06:38.946Z,102557.59
2023-02-14T23:09:09.083Z,102555.81
2023-02-14T23:11:40.037Z,102565.81
2023-02-14T23:14:25.940Z,102552.38
2023-02-14T23:17:20.135Z,102564.22
2023-02-14T23:20:06.306Z,102565.25
2023-02-14T23:22:36.565Z,102562.50
2023-02-14T23:25:07.093Z,102567.97
2023-02-14T23:27:38.426Z,102565.31
2023-02-14T23:30:08.434Z,102567.16
2023-02-14T23:32:37.219Z,102564.53
2023-02-14T23:35:05.269Z,102557.31
2023-02-14T23:37:33.711Z,102557.31
2023-02-14T23:40:01.573Z,102562.75
2023-02-14T23:42:29.471Z,102560.97
2023-02-14T23:45:18.708Z,102556.47
2023-02-14T23:47:46.708Z,102554.88
2023-02-14T23:50:15.516Z,102551.28
2023-02-14T23:52:44.480Z,102545.97
2023-02-14T23:55:12.353Z,102548.91
2023-02-14T23:57:40.753Z,102546.19
